Weather at Hopedale Industrial Park Airport

Public forecast

Using degrees Fahrenheit for public forecast. Weather courtesy of forecast.io.

Closest aviation weather report (METAR) to Hopedale Industrial Park Airport

Closest report is North Central State Airport, 11.2 nm (20.7 km) S. Retrieved 2020/09/20 03:56 UTC (6 minutes ago):

KSFZ 200356Z AUTO 04003KT 10SM CLR 06/01 A3039 RMK AO2 SLP239 T00610006

Closest aviation forecast (TAF) to Hopedale Industrial Park Airport

Closest forecast is Worcester Regional Airport, 18.9 nm (35.0 km) WNW. Retrieved 2020-09-20 00:30 UTC (4 hours ago):

TAF KORH 192326Z 2000/2024 33005KT P6SM SKC FM200600 02007KT P6SM SKC FM201400 03012KT P6SM SKC FM202300 03005KT P6SM SKC